createdAt,value
2018-07-15T00:01:18.912Z,19.00
2018-07-15T00:03:47.952Z,19.00
2018-07-15T00:06:16.869Z,19.00
2018-07-15T00:08:45.984Z,19.00
2018-07-15T00:11:14.943Z,19.10
2018-07-15T00:13:43.860Z,19.10
2018-07-15T00:16:12.789Z,19.20
2018-07-15T00:18:41.722Z,19.20
2018-07-15T00:21:10.981Z,19.20
2018-07-15T00:23:40.034Z,19.10
2018-07-15T00:26:09.031Z,19.00
2018-07-15T00:28:37.937Z,18.90
2018-07-15T00:31:06.889Z,18.80
2018-07-15T00:33:35.822Z,18.70
2018-07-15T00:36:04.805Z,18.70
2018-07-15T00:38:33.897Z,18.60
2018-07-15T00:41:02.870Z,18.60
2018-07-15T00:43:32.052Z,18.60
2018-07-15T00:46:01.064Z,18.60
2018-07-15T00:48:30.009Z,18.60
2018-07-15T00:50:59.043Z,18.60
2018-07-15T00:53:28.327Z,18.60
2018-07-15T00:55:57.227Z,18.50
2018-07-15T00:58:26.150Z,18.50
2018-07-15T01:01:01.151Z,18.40
2018-07-15T01:03:31.650Z,18.30
2018-07-15T01:06:00.712Z,18.30
2018-07-15T01:08:29.777Z,18.20
2018-07-15T01:10:58.729Z,18.20
2018-07-15T01:13:27.595Z,18.10
2018-07-15T01:15:56.539Z,18.10
2018-07-15T01:18:25.968Z,18.10
2018-07-15T01:20:54.915Z,18.10
2018-07-15T01:23:23.891Z,18.10
2018-07-15T01:25:52.825Z,18.10
2018-07-15T01:28:22.171Z,18.10
2018-07-15T01:30:51.427Z,18.10
2018-07-15T01:33:20.337Z,18.00
2018-07-15T01:35:49.249Z,18.00
2018-07-15T01:38:18.231Z,18.00
2018-07-15T01:40:47.139Z,17.90
2018-07-15T01:43:16.070Z,17.90
2018-07-15T01:45:44.973Z,17.90
2018-07-15T01:48:13.884Z,18.00
2018-07-15T01:50:42.801Z,18.00
2018-07-15T01:53:11.745Z,17.90
2018-07-15T01:55:40.644Z,17.90
2018-07-15T01:58:09.551Z,17.90
2018-07-15T02:00:38.466Z,17.90
2018-07-15T02:03:07.401Z,17.90
2018-07-15T02:05:36.423Z,17.80
2018-07-15T02:08:05.725Z,17.70
2018-07-15T02:10:34.627Z,17.60
2018-07-15T02:13:03.614Z,17.60
2018-07-15T02:15:32.558Z,17.50
2018-07-15T02:18:01.815Z,17.40
2018-07-15T02:20:30.962Z,17.40
2018-07-15T02:22:59.972Z,17.30
2018-07-15T02:25:28.954Z,17.30
2018-07-15T02:27:57.849Z,17.30
2018-07-15T02:30:26.738Z,17.30
2018-07-15T02:32:55.993Z,17.30
2018-07-15T02:35:24.895Z,17.30
2018-07-15T02:37:54.231Z,17.30
2018-07-15T02:40:23.124Z,17.20
2018-07-15T02:42:52.114Z,17.20
2018-07-15T02:45:21.377Z,17.10
2018-07-15T02:47:50.293Z,17.10
2018-07-15T02:50:19.296Z,17.00
2018-07-15T02:52:48.372Z,17.00
2018-07-15T02:55:17.345Z,16.90
2018-07-15T02:57:46.239Z,16.90
2018-07-15T03:00:15.185Z,16.90
2018-07-15T03:02:44.101Z,16.80
2018-07-15T03:05:13.001Z,16.80
2018-07-15T03:07:41.921Z,16.80
2018-07-15T03:10:10.910Z,16.80
2018-07-15T03:12:39.926Z,16.80
2018-07-15T03:15:09.173Z,16.80
2018-07-15T03:17:38.087Z,16.70
2018-07-15T03:20:07.015Z,16.70
2018-07-15T03:22:35.905Z,16.70
2018-07-15T03:25:04.835Z,16.70
2018-07-15T03:27:33.781Z,16.70
2018-07-15T03:30:02.703Z,16.70
2018-07-15T03:32:31.767Z,16.70
2018-07-15T03:35:00.667Z,16.70
2018-07-15T03:37:29.583Z,16.70
2018-07-15T03:39:58.508Z,16.70
2018-07-15T03:42:27.601Z,16.70
2018-07-15T03:44:56.522Z,16.70
2018-07-15T03:47:25.453Z,16.70
2018-07-15T03:49:54.355Z,16.70
2018-07-15T03:52:23.263Z,16.60
2018-07-15T03:54:52.167Z,16.70
2018-07-15T03:57:21.102Z,16.70
2018-07-15T03:59:49.987Z,16.70
2018-07-15T04:02:18.886Z,16.70
2018-07-15T04:04:48.164Z,16.70
2018-07-15T04:07:17.065Z,16.70
2018-07-15T04:09:45.959Z,16.70
2018-07-15T04:12:14.878Z,16.70
2018-07-15T04:14:43.815Z,16.70
2018-07-15T04:17:12.918Z,16.70
2018-07-15T04:19:41.814Z,16.80
2018-07-15T04:22:10.730Z,16.80
2018-07-15T04:24:39.643Z,16.80
2018-07-15T04:27:08.978Z,16.80
2018-07-15T04:29:37.879Z,16.90
2018-07-15T04:32:06.778Z,16.90
2018-07-15T04:34:35.678Z,17.00
2018-07-15T04:37:04.762Z,16.90
2018-07-15T04:39:33.666Z,16.90
2018-07-15T04:42:02.758Z,16.90
2018-07-15T04:44:31.656Z,17.00
2018-07-15T04:47:00.585Z,17.00
2018-07-15T04:49:29.622Z,17.00
2018-07-15T04:51:58.544Z,17.00
2018-07-15T04:56:56.167Z,17.10
2018-07-15T04:59:25.099Z,17.20
2018-07-15T05:01:54.008Z,17.20
2018-07-15T05:04:23.094Z,17.30
2018-07-15T05:06:52.444Z,17.30
2018-07-15T05:09:21.369Z,17.30
2018-07-15T05:11:50.282Z,17.30
2018-07-15T05:16:47.821Z,17.50
2018-07-15T05:19:16.887Z,17.50
2018-07-15T05:21:45.809Z,17.50
2018-07-15T05:24:14.746Z,17.50
2018-07-15T05:26:43.633Z,17.60
2018-07-15T05:29:12.897Z,17.60
2018-07-15T05:31:41.815Z,17.70
2018-07-15T05:34:10.717Z,17.70
2018-07-15T05:36:39.625Z,17.80
2018-07-15T05:39:08.563Z,17.80
2018-07-15T05:41:37.477Z,17.90
2018-07-15T05:44:07.073Z,17.90
2018-07-15T05:46:36.037Z,18.00
2018-07-15T05:49:05.500Z,18.10
2018-07-15T05:51:34.852Z,18.20
2018-07-15T05:54:04.164Z,18.30
2018-07-15T05:56:33.088Z,18.30
2018-07-15T05:59:01.995Z,18.30
2018-07-15T06:01:30.949Z,18.30
2018-07-15T06:03:59.843Z,18.40
2018-07-15T06:06:28.776Z,18.40
2018-07-15T06:08:57.697Z,18.40
2018-07-15T06:11:26.724Z,18.50
2018-07-15T06:13:55.638Z,18.50
2018-07-15T06:16:24.552Z,18.60
2018-07-15T06:18:53.466Z,18.60
2018-07-15T06:21:22.712Z,18.70
2018-07-15T06:23:52.016Z,18.80
2018-07-15T06:26:20.898Z,18.80
2018-07-15T06:28:49.901Z,18.90
2018-07-15T06:31:19.161Z,19.00
2018-07-15T06:33:48.148Z,19.10
2018-07-15T06:36:17.064Z,19.20
2018-07-15T06:38:45.966Z,19.20
2018-07-15T06:41:14.896Z,19.20
2018-07-15T06:43:43.821Z,19.20
2018-07-15T06:46:12.798Z,19.30
2018-07-15T06:48:41.714Z,19.40
2018-07-15T06:51:10.694Z,19.40
2018-07-15T06:53:39.590Z,19.40
2018-07-15T06:56:08.723Z,19.40
2018-07-15T06:58:37.686Z,19.50
2018-07-15T07:01:06.633Z,19.60
2018-07-15T07:03:35.951Z,19.50
2018-07-15T07:06:04.922Z,19.60
2018-07-15T07:08:33.891Z,19.70
2018-07-15T07:11:02.791Z,19.80
2018-07-15T07:16:00.449Z,19.90
2018-07-15T07:18:29.389Z,20.00
2018-07-15T07:20:58.293Z,20.10
2018-07-15T07:23:27.187Z,20.10
2018-07-15T07:25:56.117Z,20.00
2018-07-15T07:28:25.031Z,20.00
2018-07-15T07:30:54.021Z,20.10
2018-07-15T07:33:23.181Z,20.10
2018-07-15T07:35:52.090Z,20.10
2018-07-15T07:38:21.025Z,20.20
2018-07-15T07:40:50.250Z,20.30
2018-07-15T07:43:19.266Z,20.40
2018-07-15T07:45:48.178Z,20.50
2018-07-15T07:48:17.095Z,20.50
2018-07-15T07:50:46.135Z,20.60
2018-07-15T07:53:15.302Z,20.70
2018-07-15T07:55:44.376Z,20.70
2018-07-15T07:58:13.325Z,20.70
2018-07-15T08:00:42.235Z,20.70
2018-07-15T08:03:11.143Z,20.70
2018-07-15T08:05:40.048Z,20.70
2018-07-15T08:08:08.931Z,20.80
2018-07-15T08:10:37.849Z,20.90
2018-07-15T08:13:06.926Z,21.00
2018-07-15T08:15:36.287Z,21.10
2018-07-15T08:18:05.590Z,21.20
2018-07-15T08:20:34.464Z,21.20
2018-07-15T08:23:03.406Z,21.30
2018-07-15T08:25:32.455Z,21.30
2018-07-15T08:28:01.441Z,21.20
2018-07-15T08:30:41.920Z,21.20
2018-07-15T08:33:10.811Z,21.20
2018-07-15T08:35:39.789Z,21.40
2018-07-15T08:38:08.750Z,21.50
2018-07-15T08:40:37.711Z,21.60
2018-07-15T08:43:06.843Z,21.60
2018-07-15T08:45:35.781Z,21.70
2018-07-15T08:48:04.917Z,21.70
2018-07-15T08:50:34.230Z,21.70
2018-07-15T08:53:03.171Z,21.70
2018-07-15T08:55:32.120Z,21.80
2018-07-15T08:58:01.059Z,21.90
2018-07-15T09:00:30.119Z,22.00
2018-07-15T09:02:59.031Z,22.10
2018-07-15T09:05:28.523Z,22.20
2018-07-15T09:07:57.570Z,22.30
2018-07-15T09:10:26.653Z,22.20
2018-07-15T09:12:55.677Z,22.20
2018-07-15T09:15:24.711Z,22.20
2018-07-15T09:17:53.633Z,22.30
2018-07-15T09:20:22.566Z,22.30
2018-07-15T09:22:51.525Z,22.30
2018-07-15T09:25:20.689Z,22.30
2018-07-15T09:27:49.601Z,22.30
2018-07-15T09:30:18.509Z,22.50
2018-07-15T09:32:47.548Z,22.50
2018-07-15T09:35:16.463Z,22.60
2018-07-15T09:37:45.377Z,22.60
2018-07-15T09:40:14.277Z,22.60
2018-07-15T09:42:43.203Z,22.60
2018-07-15T09:45:12.149Z,22.60
2018-07-15T09:47:41.061Z,22.60
2018-07-15T09:50:09.992Z,22.60
2018-07-15T09:55:08.400Z,22.60
2018-07-15T09:57:37.875Z,22.70
2018-07-15T10:00:08.547Z,22.90
2018-07-15T10:02:37.552Z,23.00
2018-07-15T10:05:06.488Z,23.10
2018-07-15T10:07:35.861Z,23.10
2018-07-15T10:10:05.339Z,23.10
2018-07-15T10:12:34.443Z,23.10
2018-07-15T10:15:03.442Z,23.20
2018-07-15T10:17:32.354Z,23.10
2018-07-15T10:20:01.381Z,23.20
2018-07-15T10:22:30.297Z,23.30
2018-07-15T10:24:59.261Z,23.40
2018-07-15T10:27:34.561Z,23.60
2018-07-15T10:30:04.202Z,23.70
2018-07-15T10:32:33.340Z,23.70
2018-07-15T10:35:02.489Z,23.70
2018-07-15T10:37:31.406Z,23.70
2018-07-15T10:40:00.342Z,23.70
2018-07-15T10:42:29.715Z,23.60
2018-07-15T10:44:58.638Z,23.60
2018-07-15T10:47:27.555Z,23.60
2018-07-15T10:49:56.645Z,23.80
2018-07-15T10:52:25.586Z,24.00
2018-07-15T10:54:54.532Z,24.10
2018-07-15T10:57:23.518Z,24.20
2018-07-15T10:59:52.404Z,24.20
2018-07-15T11:02:21.791Z,24.10
2018-07-15T11:04:50.821Z,24.00
2018-07-15T11:07:20.179Z,23.90
2018-07-15T11:09:49.074Z,23.90
2018-07-15T11:12:17.964Z,24.00
2018-07-15T11:14:46.878Z,24.10
2018-07-15T11:17:15.848Z,24.10
2018-07-15T11:19:44.673Z,24.40
2018-07-15T11:22:13.637Z,24.50
2018-07-15T11:24:42.442Z,24.60
2018-07-15T11:27:11.551Z,24.70
2018-07-15T11:29:40.526Z,24.70
2018-07-15T11:32:10.033Z,24.70
2018-07-15T11:34:39.007Z,24.60
2018-07-15T11:37:07.933Z,24.60
2018-07-15T11:42:05.010Z,24.80
2018-07-15T11:44:33.638Z,25.00
2018-07-15T11:47:02.285Z,25.10
2018-07-15T11:49:30.967Z,25.20
2018-07-15T11:51:59.791Z,25.20
2018-07-15T11:54:28.663Z,25.10
2018-07-15T11:56:57.847Z,25.00
2018-07-15T11:59:26.507Z,25.00
2018-07-15T12:01:55.847Z,25.20
2018-07-15T12:04:24.663Z,25.40
2018-07-15T12:06:53.416Z,25.40
2018-07-15T12:09:22.081Z,25.40
2018-07-15T12:11:50.696Z,25.50
2018-07-15T12:14:19.327Z,25.60
2018-07-15T12:16:48.039Z,25.80
2018-07-15T12:19:16.798Z,26.00
2018-07-15T12:21:45.400Z,26.10
2018-07-15T12:24:14.042Z,26.10
2018-07-15T12:26:42.768Z,26.00
2018-07-15T12:29:11.378Z,26.20
2018-07-15T12:31:39.994Z,26.20
2018-07-15T12:34:08.645Z,26.20
2018-07-15T12:36:37.286Z,26.10
2018-07-15T12:39:06.750Z,26.10
2018-07-15T12:41:35.836Z,26.20
2018-07-15T12:44:04.464Z,26.10
2018-07-15T12:46:33.086Z,25.90
2018-07-15T12:49:01.784Z,25.80
2018-07-15T12:51:30.451Z,25.70
2018-07-15T12:53:59.094Z,25.60
2018-07-15T12:56:27.745Z,25.50
2018-07-15T12:58:56.405Z,25.40
2018-07-15T13:01:25.117Z,25.60
2018-07-15T13:03:53.911Z,25.70
2018-07-15T13:06:22.553Z,25.90
2018-07-15T13:08:51.209Z,25.90
2018-07-15T13:11:19.871Z,26.10
2018-07-15T13:13:48.637Z,26.20
2018-07-15T13:16:17.292Z,26.30
2018-07-15T13:18:46.209Z,26.30
2018-07-15T13:21:15.162Z,26.30
2018-07-15T13:23:43.905Z,26.20
2018-07-15T13:26:12.890Z,26.40
2018-07-15T13:28:41.531Z,26.40
2018-07-15T13:31:10.221Z,26.50
2018-07-15T13:33:38.855Z,26.70
2018-07-15T13:36:07.489Z,26.90
2018-07-15T13:38:36.140Z,27.10
2018-07-15T13:41:04.804Z,27.30
2018-07-15T13:43:33.651Z,27.50
2018-07-15T13:46:02.453Z,27.60
2018-07-15T13:48:31.108Z,27.60
2018-07-15T13:50:59.898Z,27.70
2018-07-15T13:53:28.687Z,27.90
2018-07-15T13:55:57.371Z,28.10
2018-07-15T13:58:26.008Z,28.10
2018-07-15T14:00:54.693Z,28.30
2018-07-15T14:03:23.309Z,28.30
2018-07-15T14:05:52.292Z,28.40
2018-07-15T14:08:20.932Z,28.50
2018-07-15T14:10:49.642Z,28.50
2018-07-15T14:13:18.288Z,28.70
2018-07-15T14:15:47.117Z,28.60
2018-07-15T14:18:15.755Z,28.40
2018-07-15T14:20:44.386Z,28.40
2018-07-15T14:23:13.022Z,28.40
2018-07-15T14:25:41.826Z,28.50
2018-07-15T14:28:10.511Z,28.70
2018-07-15T14:30:39.133Z,28.90
2018-07-15T14:33:07.810Z,29.00
2018-07-15T14:35:36.496Z,29.30
2018-07-15T14:38:05.763Z,29.80
2018-07-15T14:40:34.449Z,30.10
2018-07-15T14:43:03.103Z,30.30
2018-07-15T14:45:31.761Z,30.10
2018-07-15T14:48:00.516Z,29.90
2018-07-15T14:50:29.146Z,29.90
2018-07-15T14:52:58.141Z,30.00
2018-07-15T14:55:26.872Z,30.20
2018-07-15T14:57:55.890Z,30.20
2018-07-15T15:00:24.517Z,30.20
2018-07-15T15:02:53.155Z,30.50
2018-07-15T15:05:21.857Z,30.50
2018-07-15T15:07:50.466Z,30.50
2018-07-15T15:10:19.123Z,30.40
2018-07-15T15:12:47.804Z,30.30
2018-07-15T15:15:16.490Z,30.10
2018-07-15T15:17:45.150Z,30.00
2018-07-15T15:20:13.855Z,30.20
2018-07-15T15:22:42.456Z,30.40
2018-07-15T15:25:11.078Z,30.40
2018-07-15T15:27:39.728Z,30.30
2018-07-15T15:30:08.474Z,30.40
2018-07-15T15:32:37.155Z,30.70
2018-07-15T15:35:05.826Z,30.70
2018-07-15T15:37:34.470Z,30.60
2018-07-15T15:40:03.570Z,30.70
2018-07-15T15:42:32.304Z,30.70
2018-07-15T15:45:01.200Z,30.50
2018-07-15T15:47:30.214Z,30.50
2018-07-15T15:49:58.858Z,30.60
2018-07-15T15:52:27.906Z,30.70
2018-07-15T15:54:56.612Z,30.70
2018-07-15T15:57:31.739Z,30.70
2018-07-15T16:00:00.423Z,30.60
2018-07-15T16:02:29.198Z,30.70
2018-07-15T16:04:57.827Z,30.70
2018-07-15T16:07:26.452Z,30.50
2018-07-15T16:09:55.051Z,30.30
2018-07-15T16:12:23.818Z,30.40
2018-07-15T16:14:52.497Z,30.50
2018-07-15T16:17:21.129Z,30.80
2018-07-15T16:19:49.786Z,30.80
2018-07-15T16:22:18.581Z,30.80
2018-07-15T16:24:47.563Z,30.70
2018-07-15T16:29:45.045Z,30.90
2018-07-15T16:32:13.694Z,30.80
2018-07-15T16:34:42.332Z,30.70
2018-07-15T16:37:11.500Z,30.70
2018-07-15T16:39:40.183Z,30.70
2018-07-15T16:42:08.826Z,30.60
2018-07-15T16:44:37.467Z,30.50
2018-07-15T16:47:07.736Z,30.40
2018-07-15T16:49:36.387Z,30.50
2018-07-15T16:52:05.052Z,30.60
2018-07-15T16:54:33.709Z,30.60
2018-07-15T16:57:02.364Z,30.70
2018-07-15T16:59:31.092Z,30.90
2018-07-15T17:02:00.084Z,31.10
2018-07-15T17:04:28.922Z,31.20
2018-07-15T17:06:57.602Z,31.30
2018-07-15T17:09:26.459Z,31.20
2018-07-15T17:11:55.086Z,31.20
2018-07-15T17:14:24.091Z,31.20
2018-07-15T17:16:53.071Z,31.20
2018-07-15T17:19:21.719Z,31.40
2018-07-15T17:21:50.396Z,31.50
2018-07-15T17:24:19.216Z,31.60
2018-07-15T17:26:47.829Z,31.60
2018-07-15T17:29:16.504Z,31.60
2018-07-15T17:31:45.189Z,31.90
2018-07-15T17:34:13.813Z,32.20
2018-07-15T17:36:42.466Z,32.50
2018-07-15T17:39:11.127Z,32.70
2018-07-15T17:41:39.877Z,32.90
2018-07-15T17:44:08.563Z,32.80
2018-07-15T17:46:37.687Z,32.10
2018-07-15T17:49:06.412Z,31.50
2018-07-15T17:51:35.077Z,31.80
2018-07-15T17:54:04.163Z,32.00
2018-07-15T17:56:32.784Z,31.20
2018-07-15T17:59:01.624Z,30.10
2018-07-15T18:01:30.650Z,29.40
2018-07-15T18:03:59.300Z,28.80
2018-07-15T18:06:28.056Z,28.40
2018-07-15T18:08:56.736Z,28.10
2018-07-15T18:11:25.439Z,28.00
2018-07-15T18:13:54.122Z,27.90
2018-07-15T18:16:22.780Z,27.70
2018-07-15T18:18:51.432Z,27.40
2018-07-15T18:21:20.120Z,27.30
2018-07-15T18:23:49.180Z,27.10
2018-07-15T18:26:17.908Z,27.10
2018-07-15T18:28:46.519Z,27.00
2018-07-15T18:31:15.138Z,26.90
2018-07-15T18:33:43.751Z,26.80
2018-07-15T18:36:12.448Z,26.60
2018-07-15T18:38:41.106Z,26.40
2018-07-15T18:41:09.746Z,26.30
2018-07-15T18:43:38.735Z,26.20
2018-07-15T18:46:07.727Z,26.10
2018-07-15T18:48:36.377Z,26.00
2018-07-15T18:51:05.535Z,25.80
2018-07-15T18:53:34.597Z,25.70
2018-07-15T18:56:03.769Z,25.60
2018-07-15T18:58:32.822Z,25.50
2018-07-15T19:01:01.780Z,25.40
2018-07-15T19:03:30.745Z,25.30
2018-07-15T19:05:59.756Z,25.20
2018-07-15T19:08:28.996Z,25.10
2018-07-15T19:10:57.959Z,25.00
2018-07-15T19:13:26.986Z,25.00
2018-07-15T19:15:55.926Z,24.80
2018-07-15T19:18:25.038Z,24.70
2018-07-15T19:20:54.083Z,24.60
2018-07-15T19:23:23.035Z,24.50
2018-07-15T19:25:51.960Z,24.50
2018-07-15T19:28:20.939Z,24.40
2018-07-15T19:30:49.864Z,24.30
2018-07-15T19:33:18.868Z,24.20
2018-07-15T19:35:47.790Z,24.20
2018-07-15T19:38:16.778Z,24.10
2018-07-15T19:40:46.149Z,24.00
2018-07-15T19:43:15.308Z,24.00
2018-07-15T19:45:44.236Z,23.90
2018-07-15T19:48:13.142Z,23.80
2018-07-15T19:50:41.760Z,23.70
2018-07-15T19:53:10.777Z,23.70
2018-07-15T19:55:39.694Z,23.60
2018-07-15T19:58:08.654Z,23.60
2018-07-15T20:00:37.577Z,23.50
2018-07-15T20:03:06.917Z,23.50
2018-07-15T20:05:36.000Z,23.40
2018-07-15T20:08:04.930Z,23.30
2018-07-15T20:10:33.842Z,23.30
2018-07-15T20:13:03.252Z,23.30
2018-07-15T20:15:32.507Z,23.20
2018-07-15T20:18:01.423Z,23.10
2018-07-15T20:20:30.353Z,23.00
2018-07-15T20:22:59.277Z,23.00
2018-07-15T20:25:28.189Z,22.90
2018-07-15T20:27:57.097Z,22.80
2018-07-15T20:30:26.011Z,22.70
2018-07-15T20:32:54.946Z,22.60
2018-07-15T20:35:23.953Z,22.60
2018-07-15T20:37:53.073Z,22.50
2018-07-15T20:40:21.987Z,22.40
2018-07-15T20:42:51.045Z,22.30
2018-07-15T20:45:20.303Z,22.30
2018-07-15T20:47:49.241Z,22.20
2018-07-15T20:50:18.161Z,22.10
2018-07-15T20:52:47.626Z,22.10
2018-07-15T20:55:16.625Z,22.00
2018-07-15T20:57:45.548Z,22.00
2018-07-15T21:00:14.521Z,21.90
2018-07-15T21:02:43.558Z,21.90
2018-07-15T21:05:13.081Z,21.90
2018-07-15T21:07:42.034Z,21.80
2018-07-15T21:10:11.091Z,21.80
2018-07-15T21:12:40.227Z,21.70
2018-07-15T21:15:09.149Z,21.70
2018-07-15T21:17:38.162Z,21.60
2018-07-15T21:20:07.105Z,21.60
2018-07-15T21:22:36.036Z,21.50
2018-07-15T21:25:05.349Z,21.50
2018-07-15T21:27:34.254Z,21.50
2018-07-15T21:30:03.589Z,21.40
2018-07-15T21:32:32.498Z,21.40
2018-07-15T21:35:01.450Z,21.40
2018-07-15T21:37:30.379Z,21.30
2018-07-15T21:39:59.285Z,21.30
2018-07-15T21:42:28.190Z,21.20
2018-07-15T21:44:57.105Z,21.20
2018-07-15T21:47:26.034Z,21.20
2018-07-15T21:49:55.181Z,21.10
2018-07-15T21:52:24.478Z,21.10
2018-07-15T21:54:53.730Z,21.10
2018-07-15T21:57:22.674Z,21.00
2018-07-15T21:59:51.768Z,21.00
2018-07-15T22:02:21.294Z,21.00
2018-07-15T22:07:30.026Z,20.90
2018-07-15T22:10:14.818Z,20.80
2018-07-15T22:12:43.758Z,20.80
2018-07-15T22:15:12.686Z,20.70
2018-07-15T22:17:41.628Z,20.60
2018-07-15T22:20:10.950Z,20.60
2018-07-15T22:22:39.872Z,20.60
2018-07-15T22:25:08.762Z,20.60
2018-07-15T22:30:06.401Z,20.50
2018-07-15T22:32:35.310Z,20.40
2018-07-15T22:35:04.322Z,20.40
2018-07-15T22:37:33.247Z,20.30
2018-07-15T22:40:02.185Z,20.30
2018-07-15T22:42:31.601Z,20.30
2018-07-15T22:45:00.511Z,20.20
2018-07-15T22:47:30.139Z,20.20
2018-07-15T22:49:59.165Z,20.20
2018-07-15T22:52:28.504Z,20.20
2018-07-15T22:54:57.691Z,20.10
2018-07-15T22:57:26.625Z,20.10
2018-07-15T22:59:55.781Z,20.00
2018-07-15T23:02:24.859Z,20.00
2018-07-15T23:06:02.727Z,20.00
2018-07-15T23:08:32.617Z,19.90
2018-07-15T23:13:30.181Z,19.80
2018-07-15T23:18:28.119Z,19.70
2018-07-15T23:20:57.068Z,19.70
2018-07-15T23:23:25.975Z,19.60
2018-07-15T23:25:55.324Z,19.60
2018-07-15T23:28:24.271Z,19.60
2018-07-15T23:30:53.207Z,19.50
2018-07-15T23:33:22.127Z,19.50
2018-07-15T23:35:51.028Z,19.50
2018-07-15T23:38:19.952Z,19.50
2018-07-15T23:40:48.974Z,19.40
2018-07-15T23:43:17.904Z,19.40
2018-07-15T23:45:46.882Z,19.30
2018-07-15T23:48:16.078Z,19.30
2018-07-15T23:50:45.014Z,19.20
2018-07-15T23:53:13.952Z,19.20
2018-07-15T23:55:42.909Z,19.20
2018-07-15T23:58:12.192Z,19.20
